sensor_id;sensor_type;location;lat;lon;timestamp;pressure;altitude;pressure_sealevel;temperature;humidity
53300;BME280;39187;48.476;8.310;2023-08-24T00:01:17;91688.69;;;20.15;63.08
53300;BME280;39187;48.476;8.310;2023-08-24T00:03:46;91688.91;;;20.26;63.14
53300;BME280;39187;48.476;8.310;2023-08-24T00:06:13;91686.13;;;20.12;63.74
53300;BME280;39187;48.476;8.310;2023-08-24T00:08:38;91677.63;;;20.28;62.93
53300;BME280;39187;48.476;8.310;2023-08-24T00:11:04;91672.78;;;20.32;63.17
53300;BME280;39187;48.476;8.310;2023-08-24T00:13:31;91675.91;;;20.39;63.38
53300;BME280;39187;48.476;8.310;2023-08-24T00:15:56;91670.78;;;20.42;63.92
53300;BME280;39187;48.476;8.310;2023-08-24T00:18:22;91675.16;;;20.39;64.34
53300;BME280;39187;48.476;8.310;2023-08-24T00:20:48;91667.81;;;20.16;66.03
53300;BME280;39187;48.476;8.310;2023-08-24T00:23:14;91667.41;;;20.08;66.65
53300;BME280;39187;48.476;8.310;2023-08-24T00:25:40;91669.13;;;20.20;66.39
53300;BME280;39187;48.476;8.310;2023-08-24T00:28:09;91666.00;;;20.13;67.29
53300;BME280;39187;48.476;8.310;2023-08-24T00:30:34;91662.66;;;20.03;67.77
53300;BME280;39187;48.476;8.310;2023-08-24T00:33:00;91661.47;;;20.19;67.35
53300;BME280;39187;48.476;8.310;2023-08-24T00:35:25;91655.56;;;20.06;68.26
53300;BME280;39187;48.476;8.310;2023-08-24T00:37:51;91657.06;;;20.07;68.20
53300;BME280;39187;48.476;8.310;2023-08-24T00:40:17;91650.28;;;19.87;69.39
53300;BME280;39187;48.476;8.310;2023-08-24T00:42:44;91651.88;;;19.94;69.54
53300;BME280;39187;48.476;8.310;2023-08-24T00:45:12;91645.94;;;20.05;69.00
53300;BME280;39187;48.476;8.310;2023-08-24T00:47:39;91652.09;;;20.05;69.51
53300;BME280;39187;48.476;8.310;2023-08-24T00:50:06;91643.50;;;19.92;70.72
53300;BME280;39187;48.476;8.310;2023-08-24T00:52:32;91638.88;;;20.07;69.84
53300;BME280;39187;48.476;8.310;2023-08-24T00:54:59;91639.13;;;19.94;70.69
53300;BME280;39187;48.476;8.310;2023-08-24T00:57:26;91637.28;;;20.00;70.82
53300;BME280;39187;48.476;8.310;2023-08-24T00:59:52;91638.09;;;19.92;71.32
53300;BME280;39187;48.476;8.310;2023-08-24T01:02:18;91630.91;;;19.89;71.49
53300;BME280;39187;48.476;8.310;2023-08-24T01:04:46;91635.03;;;19.99;70.81
53300;BME280;39187;48.476;8.310;2023-08-24T01:07:12;91636.47;;;19.85;71.79
53300;BME280;39187;48.476;8.310;2023-08-24T01:09:39;91633.41;;;19.78;72.69
53300;BME280;39187;48.476;8.310;2023-08-24T01:12:20;91630.75;;;19.69;73.36
53300;BME280;39187;48.476;8.310;2023-08-24T01:15:15;91627.13;;;19.72;73.37
53300;BME280;39187;48.476;8.310;2023-08-24T01:17:43;91631.72;;;19.56;74.72
53300;BME280;39187;48.476;8.310;2023-08-24T01:20:10;91633.75;;;19.71;74.33
53300;BME280;39187;48.476;8.310;2023-08-24T01:23:04;91632.59;;;19.63;75.03
53300;BME280;39187;48.476;8.310;2023-08-24T01:25:51;91632.75;;;19.59;75.44
53300;BME280;39187;48.476;8.310;2023-08-24T01:28:17;91630.69;;;19.54;75.97
53300;BME280;39187;48.476;8.310;2023-08-24T01:30:44;91633.03;;;19.61;75.82
53300;BME280;39187;48.476;8.310;2023-08-24T01:33:10;91626.31;;;19.56;76.00
53300;BME280;39187;48.476;8.310;2023-08-24T01:35:39;91619.72;;;19.57;76.28
53300;BME280;39187;48.476;8.310;2023-08-24T01:38:05;91626.88;;;19.60;75.97
53300;BME280;39187;48.476;8.310;2023-08-24T01:41:14;91626.44;;;19.62;75.93
53300;BME280;39187;48.476;8.310;2023-08-24T01:43:43;91626.03;;;19.78;73.95
53300;BME280;39187;48.476;8.310;2023-08-24T01:46:14;91626.66;;;19.73;74.47
53300;BME280;39187;48.476;8.310;2023-08-24T01:48:41;91622.06;;;19.88;72.84
53300;BME280;39187;48.476;8.310;2023-08-24T01:51:07;91619.00;;;19.95;72.58
53300;BME280;39187;48.476;8.310;2023-08-24T01:53:35;91611.41;;;19.85;71.95
53300;BME280;39187;48.476;8.310;2023-08-24T01:56:10;91612.34;;;19.82;71.07
53300;BME280;39187;48.476;8.310;2023-08-24T01:58:37;91608.72;;;19.85;69.83
53300;BME280;39187;48.476;8.310;2023-08-24T02:01:04;91611.59;;;19.81;70.61
53300;BME280;39187;48.476;8.310;2023-08-24T02:03:29;91606.50;;;19.83;70.39
53300;BME280;39187;48.476;8.310;2023-08-24T02:05:56;91603.78;;;19.83;70.47
53300;BME280;39187;48.476;8.310;2023-08-24T02:08:21;91595.91;;;19.94;70.53
53300;BME280;39187;48.476;8.310;2023-08-24T02:10:47;91592.28;;;20.12;69.80
53300;BME280;39187;48.476;8.310;2023-08-24T02:13:12;91599.66;;;20.12;70.02
53300;BME280;39187;48.476;8.310;2023-08-24T02:15:38;91600.03;;;20.19;69.24
53300;BME280;39187;48.476;8.310;2023-08-24T02:18:07;91598.91;;;19.96;70.59
53300;BME280;39187;48.476;8.310;2023-08-24T02:20:36;91597.53;;;20.16;69.56
53300;BME280;39187;48.476;8.310;2023-08-24T02:23:03;91597.34;;;20.19;69.45
53300;BME280;39187;48.476;8.310;2023-08-24T02:25:29;91594.75;;;20.25;69.36
53300;BME280;39187;48.476;8.310;2023-08-24T02:27:54;91590.19;;;20.31;69.28
53300;BME280;39187;48.476;8.310;2023-08-24T02:30:20;91586.63;;;20.25;70.14
53300;BME280;39187;48.476;8.310;2023-08-24T02:32:45;91588.28;;;20.46;68.81
53300;BME280;39187;48.476;8.310;2023-08-24T02:35:11;91590.50;;;20.48;67.87
53300;BME280;39187;48.476;8.310;2023-08-24T02:37:36;91587.69;;;20.57;67.51
53300;BME280;39187;48.476;8.310;2023-08-24T02:40:02;91588.44;;;20.57;67.24
53300;BME280;39187;48.476;8.310;2023-08-24T02:42:30;91582.13;;;20.60;66.65
53300;BME280;39187;48.476;8.310;2023-08-24T02:44:57;91586.41;;;20.52;65.44
53300;BME280;39187;48.476;8.310;2023-08-24T02:47:22;91579.69;;;20.62;65.04
53300;BME280;39187;48.476;8.310;2023-08-24T02:49:48;91573.72;;;20.58;65.74
53300;BME280;39187;48.476;8.310;2023-08-24T02:52:13;91573.91;;;20.69;65.52
53300;BME280;39187;48.476;8.310;2023-08-24T02:54:39;91567.47;;;20.67;66.33
53300;BME280;39187;48.476;8.310;2023-08-24T02:57:04;91559.72;;;20.74;66.12
53300;BME280;39187;48.476;8.310;2023-08-24T02:59:30;91568.78;;;20.57;68.34
53300;BME280;39187;48.476;8.310;2023-08-24T03:01:55;91561.88;;;20.56;69.02
53300;BME280;39187;48.476;8.310;2023-08-24T03:04:21;91554.78;;;20.58;69.70
53300;BME280;39187;48.476;8.310;2023-08-24T03:06:47;91555.16;;;20.66;70.47
53300;BME280;39187;48.476;8.310;2023-08-24T03:09:12;91533.31;;;20.69;70.84
53300;BME280;39187;48.476;8.310;2023-08-24T03:11:38;91549.00;;;20.51;74.21
53300;BME280;39187;48.476;8.310;2023-08-24T03:14:04;91543.75;;;20.76;73.07
53300;BME280;39187;48.476;8.310;2023-08-24T03:16:29;91539.03;;;20.71;73.94
53300;BME280;39187;48.476;8.310;2023-08-24T03:18:55;91534.16;;;20.75;73.22
53300;BME280;39187;48.476;8.310;2023-08-24T03:21:20;91524.00;;;20.70;73.01
53300;BME280;39187;48.476;8.310;2023-08-24T03:23:46;91529.41;;;20.70;73.60
53300;BME280;39187;48.476;8.310;2023-08-24T03:26:12;91533.69;;;20.77;74.47
53300;BME280;39187;48.476;8.310;2023-08-24T03:28:37;91529.63;;;20.52;78.04
53300;BME280;39187;48.476;8.310;2023-08-24T03:31:03;91526.53;;;20.74;77.36
53300;BME280;39187;48.476;8.310;2023-08-24T03:33:28;91527.19;;;20.39;79.64
53300;BME280;39187;48.476;8.310;2023-08-24T03:35:54;91527.09;;;20.49;79.23
53300;BME280;39187;48.476;8.310;2023-08-24T03:38:19;91518.25;;;20.33;80.30
53300;BME280;39187;48.476;8.310;2023-08-24T03:40:45;91514.44;;;20.40;79.46
53300;BME280;39187;48.476;8.310;2023-08-24T03:43:10;91517.66;;;20.29;79.63
53300;BME280;39187;48.476;8.310;2023-08-24T03:45:36;91518.69;;;20.32;79.21
53300;BME280;39187;48.476;8.310;2023-08-24T03:48:02;91514.88;;;20.38;78.32
53300;BME280;39187;48.476;8.310;2023-08-24T03:50:27;91519.09;;;20.39;78.74
53300;BME280;39187;48.476;8.310;2023-08-24T03:52:54;91528.13;;;20.36;79.01
53300;BME280;39187;48.476;8.310;2023-08-24T03:55:20;91517.31;;;20.36;79.91
53300;BME280;39187;48.476;8.310;2023-08-24T03:57:46;91517.31;;;20.36;80.63
53300;BME280;39187;48.476;8.310;2023-08-24T04:00:12;91505.38;;;20.43;80.17
53300;BME280;39187;48.476;8.310;2023-08-24T04:02:38;91505.63;;;20.30;81.94
53300;BME280;39187;48.476;8.310;2023-08-24T04:05:04;91502.38;;;20.26;82.29
53300;BME280;39187;48.476;8.310;2023-08-24T04:07:29;91512.16;;;20.09;83.75
53300;BME280;39187;48.476;8.310;2023-08-24T04:09:55;91508.53;;;20.12;83.43
53300;BME280;39187;48.476;8.310;2023-08-24T04:12:20;91499.19;;;19.98;84.91
53300;BME280;39187;48.476;8.310;2023-08-24T04:14:46;91504.03;;;19.94;85.47
53300;BME280;39187;48.476;8.310;2023-08-24T04:17:11;91506.75;;;20.09;85.11
53300;BME280;39187;48.476;8.310;2023-08-24T04:19:39;91502.19;;;20.15;84.88
53300;BME280;39187;48.476;8.310;2023-08-24T04:22:05;91504.69;;;20.19;84.71
53300;BME280;39187;48.476;8.310;2023-08-24T04:24:30;91501.53;;;20.20;84.67
53300;BME280;39187;48.476;8.310;2023-08-24T04:26:56;91510.75;;;20.14;85.32
53300;BME280;39187;48.476;8.310;2023-08-24T04:29:21;91500.88;;;19.96;86.03
53300;BME280;39187;48.476;8.310;2023-08-24T04:31:47;91505.44;;;19.90;86.07
53300;BME280;39187;48.476;8.310;2023-08-24T04:34:13;91499.47;;;19.86;86.43
53300;BME280;39187;48.476;8.310;2023-08-24T04:36:38;91500.38;;;19.68;87.38
53300;BME280;39187;48.476;8.310;2023-08-24T04:39:03;91500.75;;;19.76;86.81
53300;BME280;39187;48.476;8.310;2023-08-24T04:41:29;91497.31;;;19.75;86.67
53300;BME280;39187;48.476;8.310;2023-08-24T04:43:54;91492.00;;;19.81;86.32
53300;BME280;39187;48.476;8.310;2023-08-24T04:46:20;91495.38;;;19.90;85.00
53300;BME280;39187;48.476;8.310;2023-08-24T04:48:45;91495.09;;;19.88;85.38
53300;BME280;39187;48.476;8.310;2023-08-24T04:51:11;91495.84;;;19.89;85.07
53300;BME280;39187;48.476;8.310;2023-08-24T04:53:36;91494.16;;;19.77;85.26
53300;BME280;39187;48.476;8.310;2023-08-24T04:56:02;91499.56;;;19.77;85.28
53300;BME280;39187;48.476;8.310;2023-08-24T04:58:27;91496.00;;;19.85;84.52
53300;BME280;39187;48.476;8.310;2023-08-24T05:00:53;91503.00;;;19.92;83.58
53300;BME280;39187;48.476;8.310;2023-08-24T05:03:20;91498.22;;;19.72;84.56
53300;BME280;39187;48.476;8.310;2023-08-24T05:05:46;91496.66;;;19.80;84.10
53300;BME280;39187;48.476;8.310;2023-08-24T05:08:12;91495.91;;;19.80;83.62
53300;BME280;39187;48.476;8.310;2023-08-24T05:10:38;91492.47;;;19.79;83.50
53300;BME280;39187;48.476;8.310;2023-08-24T05:13:03;91493.41;;;19.91;83.30
53300;BME280;39187;48.476;8.310;2023-08-24T05:15:30;91494.53;;;19.99;82.80
53300;BME280;39187;48.476;8.310;2023-08-24T05:17:55;91493.97;;;19.95;82.83
53300;BME280;39187;48.476;8.310;2023-08-24T05:20:28;91495.75;;;19.98;82.58
53300;BME280;39187;48.476;8.310;2023-08-24T05:22:53;91490.91;;;20.17;81.29
53300;BME280;39187;48.476;8.310;2023-08-24T05:25:20;91487.78;;;20.33;79.80
53300;BME280;39187;48.476;8.310;2023-08-24T05:27:46;91489.53;;;20.36;80.31
53300;BME280;39187;48.476;8.310;2023-08-24T05:30:12;91497.06;;;20.02;82.42
53300;BME280;39187;48.476;8.310;2023-08-24T05:32:37;91495.47;;;19.96;81.93
53300;BME280;39187;48.476;8.310;2023-08-24T05:35:05;91494.06;;;19.86;82.91
53300;BME280;39187;48.476;8.310;2023-08-24T05:37:31;91495.38;;;19.90;82.86
53300;BME280;39187;48.476;8.310;2023-08-24T05:39:56;91494.91;;;19.92;82.48
53300;BME280;39187;48.476;8.310;2023-08-24T05:42:22;91487.00;;;19.88;82.93
53300;BME280;39187;48.476;8.310;2023-08-24T05:44:47;91481.19;;;19.81;83.17
53300;BME280;39187;48.476;8.310;2023-08-24T05:47:13;91495.47;;;19.96;82.58
53300;BME280;39187;48.476;8.310;2023-08-24T05:49:38;91483.53;;;20.17;81.17
53300;BME280;39187;48.476;8.310;2023-08-24T05:52:04;91492.31;;;20.12;81.55
53300;BME280;39187;48.476;8.310;2023-08-24T05:54:29;91491.94;;;20.19;81.52
53300;BME280;39187;48.476;8.310;2023-08-24T05:56:55;91485.63;;;20.37;80.78
53300;BME280;39187;48.476;8.310;2023-08-24T05:59:20;91488.81;;;20.35;81.30
53300;BME280;39187;48.476;8.310;2023-08-24T06:01:46;91485.91;;;20.39;80.59
53300;BME280;39187;48.476;8.310;2023-08-24T06:04:11;91488.50;;;20.19;80.89
53300;BME280;39187;48.476;8.310;2023-08-24T06:06:37;91486.25;;;20.17;81.45
53300;BME280;39187;48.476;8.310;2023-08-24T06:09:03;91485.13;;;20.24;81.45
53300;BME280;39187;48.476;8.310;2023-08-24T06:11:32;91483.19;;;20.39;81.03
53300;BME280;39187;48.476;8.310;2023-08-24T06:13:58;91490.81;;;20.55;80.57
53300;BME280;39187;48.476;8.310;2023-08-24T06:16:24;91491.94;;;20.49;80.86
53300;BME280;39187;48.476;8.310;2023-08-24T06:18:50;91492.28;;;20.71;79.52
53300;BME280;39187;48.476;8.310;2023-08-24T06:21:16;91505.13;;;20.76;79.69
53300;BME280;39187;48.476;8.310;2023-08-24T06:23:41;91511.75;;;20.90;79.64
53300;BME280;39187;48.476;8.310;2023-08-24T06:26:07;91518.34;;;20.89;80.22
53300;BME280;39187;48.476;8.310;2023-08-24T06:28:33;91516.91;;;20.73;79.84
53300;BME280;39187;48.476;8.310;2023-08-24T06:31:00;91517.59;;;21.03;78.31
53300;BME280;39187;48.476;8.310;2023-08-24T06:33:29;91522.47;;;20.99;79.47
53300;BME280;39187;48.476;8.310;2023-08-24T06:35:58;91516.91;;;21.08;81.20
53300;BME280;39187;48.476;8.310;2023-08-24T06:38:25;91510.38;;;21.00;79.30
53300;BME280;39187;48.476;8.310;2023-08-24T06:40:51;91506.97;;;20.99;77.25
53300;BME280;39187;48.476;8.310;2023-08-24T06:43:16;91506.75;;;21.03;76.18
53300;BME280;39187;48.476;8.310;2023-08-24T06:45:44;91508.78;;;21.23;75.84
53300;BME280;39187;48.476;8.310;2023-08-24T06:48:09;91504.66;;;21.47;75.10
53300;BME280;39187;48.476;8.310;2023-08-24T06:50:36;91503.91;;;21.67;75.76
53300;BME280;39187;48.476;8.310;2023-08-24T06:53:05;91500.63;;;21.83;75.88
53300;BME280;39187;48.476;8.310;2023-08-24T06:55:30;91492.81;;;22.11;74.75
53300;BME280;39187;48.476;8.310;2023-08-24T06:57:56;91495.72;;;22.33;75.00
53300;BME280;39187;48.476;8.310;2023-08-24T07:00:22;91491.47;;;22.53;72.92
53300;BME280;39187;48.476;8.310;2023-08-24T07:02:49;91490.78;;;22.95;71.24
53300;BME280;39187;48.476;8.310;2023-08-24T07:05:15;91496.72;;;23.36;68.55
53300;BME280;39187;48.476;8.310;2023-08-24T07:07:45;91491.84;;;23.51;70.28
53300;BME280;39187;48.476;8.310;2023-08-24T07:10:11;91492.31;;;24.20;68.19
53300;BME280;39187;48.476;8.310;2023-08-24T07:12:37;91483.47;;;24.97;64.56
53300;BME280;39187;48.476;8.310;2023-08-24T07:15:06;91497.41;;;25.79;61.12
53300;BME280;39187;48.476;8.310;2023-08-24T07:17:32;91496.47;;;26.18;60.06
53300;BME280;39187;48.476;8.310;2023-08-24T07:19:57;91496.53;;;26.83;57.17
53300;BME280;39187;48.476;8.310;2023-08-24T07:22:23;91481.28;;;26.69;56.26
53300;BME280;39187;48.476;8.310;2023-08-24T07:24:51;91488.50;;;27.26;54.83
53300;BME280;39187;48.476;8.310;2023-08-24T07:27:17;91479.94;;;27.60;54.95
53300;BME280;39187;48.476;8.310;2023-08-24T07:29:43;91483.28;;;27.52;54.50
53300;BME280;39187;48.476;8.310;2023-08-24T07:32:08;91482.84;;;27.67;54.36
53300;BME280;39187;48.476;8.310;2023-08-24T07:34:34;91488.56;;;27.88;54.40
53300;BME280;39187;48.476;8.310;2023-08-24T07:37:00;91492.38;;;28.04;53.53
53300;BME280;39187;48.476;8.310;2023-08-24T07:39:25;91479.56;;;28.49;52.20
53300;BME280;39187;48.476;8.310;2023-08-24T07:41:51;91482.63;;;29.09;51.25
53300;BME280;39187;48.476;8.310;2023-08-24T07:44:16;91479.97;;;29.04;51.84
53300;BME280;39187;48.476;8.310;2023-08-24T07:46:42;91489.06;;;28.48;50.57
53300;BME280;39187;48.476;8.310;2023-08-24T07:49:07;91483.91;;;28.77;51.01
53300;BME280;39187;48.476;8.310;2023-08-24T07:51:33;91487.59;;;29.11;50.71
53300;BME280;39187;48.476;8.310;2023-08-24T07:54:00;91494.09;;;29.40;49.41
53300;BME280;39187;48.476;8.310;2023-08-24T07:56:25;91491.47;;;29.74;48.91
53300;BME280;39187;48.476;8.310;2023-08-24T07:58:51;91489.13;;;29.78;48.99
53300;BME280;39187;48.476;8.310;2023-08-24T08:01:16;91489.44;;;30.14;48.09
53300;BME280;39187;48.476;8.310;2023-08-24T08:03:42;91484.59;;;29.67;48.36
53300;BME280;39187;48.476;8.310;2023-08-24T08:06:07;91492.63;;;29.52;48.80
53300;BME280;39187;48.476;8.310;2023-08-24T08:08:33;91498.97;;;29.60;48.63
53300;BME280;39187;48.476;8.310;2023-08-24T08:11:00;91490.94;;;29.88;48.02
53300;BME280;39187;48.476;8.310;2023-08-24T08:13:26;91487.72;;;30.24;47.57
53300;BME280;39187;48.476;8.310;2023-08-24T08:15:52;91491.19;;;30.51;46.12
53300;BME280;39187;48.476;8.310;2023-08-24T08:18:17;91495.81;;;30.43;46.01
53300;BME280;39187;48.476;8.310;2023-08-24T08:20:43;91490.59;;;30.18;47.01
53300;BME280;39187;48.476;8.310;2023-08-24T08:23:08;91498.63;;;30.63;45.89
53300;BME280;39187;48.476;8.310;2023-08-24T08:25:34;91496.50;;;30.70;46.15
53300;BME280;39187;48.476;8.310;2023-08-24T08:27:59;91501.50;;;30.58;45.98
53300;BME280;39187;48.476;8.310;2023-08-24T08:30:25;91495.44;;;30.25;46.32
53300;BME280;39187;48.476;8.310;2023-08-24T08:32:50;91492.84;;;29.94;47.34
53300;BME280;39187;48.476;8.310;2023-08-24T08:35:18;91500.75;;;29.71;48.37
53300;BME280;39187;48.476;8.310;2023-08-24T08:37:44;91497.59;;;29.67;47.85
53300;BME280;39187;48.476;8.310;2023-08-24T08:40:10;91500.41;;;29.35;48.59
53300;BME280;39187;48.476;8.310;2023-08-24T08:42:36;91503.81;;;29.67;48.32
53300;BME280;39187;48.476;8.310;2023-08-24T08:45:04;91500.22;;;28.50;50.59
53300;BME280;39187;48.476;8.310;2023-08-24T08:47:33;91496.31;;;28.96;49.51
53300;BME280;39187;48.476;8.310;2023-08-24T08:49:59;91487.25;;;29.73;48.69
53300;BME280;39187;48.476;8.310;2023-08-24T08:52:27;91486.34;;;30.31;48.14
53300;BME280;39187;48.476;8.310;2023-08-24T08:54:53;91490.13;;;29.94;48.04
53300;BME280;39187;48.476;8.310;2023-08-24T08:57:21;91485.47;;;30.36;48.10
53300;BME280;39187;48.476;8.310;2023-08-24T08:59:48;91481.88;;;30.75;46.13
53300;BME280;39187;48.476;8.310;2023-08-24T09:02:18;91485.19;;;30.26;47.11
53300;BME280;39187;48.476;8.310;2023-08-24T09:04:44;91478.66;;;30.63;46.61
53300;BME280;39187;48.476;8.310;2023-08-24T09:07:15;91482.88;;;30.64;46.59
53300;BME280;39187;48.476;8.310;2023-08-24T09:09:41;91480.22;;;30.92;45.88
53300;BME280;39187;48.476;8.310;2023-08-24T09:12:07;91476.59;;;31.39;47.11
53300;BME280;39187;48.476;8.310;2023-08-24T09:14:33;91475.31;;;30.57;46.87
53300;BME280;39187;48.476;8.310;2023-08-24T09:16:59;91475.75;;;31.02;46.14
53300;BME280;39187;48.476;8.310;2023-08-24T09:19:32;91464.84;;;31.10;45.69
53300;BME280;39187;48.476;8.310;2023-08-24T09:22:01;91459.09;;;30.66;46.87
53300;BME280;39187;48.476;8.310;2023-08-24T09:24:31;91460.53;;;30.47;47.23
53300;BME280;39187;48.476;8.310;2023-08-24T09:26:57;91452.06;;;29.84;49.11
53300;BME280;39187;48.476;8.310;2023-08-24T09:29:23;91457.09;;;30.33;48.24
53300;BME280;39187;48.476;8.310;2023-08-24T09:31:50;91456.75;;;30.37;47.16
53300;BME280;39187;48.476;8.310;2023-08-24T09:34:19;91456.41;;;30.53;47.72
53300;BME280;39187;48.476;8.310;2023-08-24T09:36:46;91443.34;;;30.88;47.24
53300;BME280;39187;48.476;8.310;2023-08-24T09:39:12;91443.91;;;30.18;47.90
53300;BME280;39187;48.476;8.310;2023-08-24T09:41:46;91438.03;;;30.14;48.42
53300;BME280;39187;48.476;8.310;2023-08-24T09:44:12;91433.75;;;29.66;49.52
53300;BME280;39187;48.476;8.310;2023-08-24T09:46:39;91424.84;;;30.00;48.33
53300;BME280;39187;48.476;8.310;2023-08-24T09:49:06;91427.16;;;30.43;48.24
53300;BME280;39187;48.476;8.310;2023-08-24T09:51:33;91422.13;;;29.73;48.53
53300;BME280;39187;48.476;8.310;2023-08-24T09:54:00;91423.72;;;29.29;49.95
53300;BME280;39187;48.476;8.310;2023-08-24T09:56:28;91418.88;;;29.35;51.09
53300;BME280;39187;48.476;8.310;2023-08-24T09:58:54;91418.09;;;29.08;51.18
53300;BME280;39187;48.476;8.310;2023-08-24T10:01:23;91419.03;;;28.53;51.64
53300;BME280;39187;48.476;8.310;2023-08-24T10:03:51;91409.50;;;28.73;51.43
53300;BME280;39187;48.476;8.310;2023-08-24T10:06:21;91416.22;;;28.40;52.27
53300;BME280;39187;48.476;8.310;2023-08-24T10:08:54;91409.53;;;28.54;52.45
53300;BME280;39187;48.476;8.310;2023-08-24T10:11:23;91407.94;;;28.77;52.01
53300;BME280;39187;48.476;8.310;2023-08-24T10:16:35;91397.97;;;27.91;54.67
53300;BME280;39187;48.476;8.310;2023-08-24T10:19:02;91399.69;;;27.76;55.40
53300;BME280;39187;48.476;8.310;2023-08-24T10:21:28;91401.84;;;27.64;56.75
53300;BME280;39187;48.476;8.310;2023-08-24T10:23:56;91395.78;;;27.52;55.41
53300;BME280;39187;48.476;8.310;2023-08-24T10:26:26;91394.97;;;27.58;55.91
53300;BME280;39187;48.476;8.310;2023-08-24T10:28:52;91400.09;;;27.42;57.26
53300;BME280;39187;48.476;8.310;2023-08-24T10:31:19;91402.34;;;27.63;56.65
53300;BME280;39187;48.476;8.310;2023-08-24T10:33:46;91401.25;;;27.71;56.80
53300;BME280;39187;48.476;8.310;2023-08-24T10:36:13;91396.25;;;27.51;56.32
53300;BME280;39187;48.476;8.310;2023-08-24T10:38:41;91391.47;;;27.14;57.21
53300;BME280;39187;48.476;8.310;2023-08-24T10:41:10;91394.34;;;27.22;58.12
53300;BME280;39187;48.476;8.310;2023-08-24T10:43:40;91390.88;;;27.21;56.32
53300;BME280;39187;48.476;8.310;2023-08-24T10:46:13;91394.25;;;27.33;57.87
53300;BME280;39187;48.476;8.310;2023-08-24T10:53:55;91381.44;;;27.41;53.77
53300;BME280;39187;48.476;8.310;2023-08-24T10:56:29;91384.28;;;27.11;56.33
53300;BME280;39187;48.476;8.310;2023-08-24T10:59:11;91386.00;;;27.14;55.18
53300;BME280;39187;48.476;8.310;2023-08-24T11:01:39;91380.66;;;27.46;56.25
53300;BME280;39187;48.476;8.310;2023-08-24T11:04:05;91377.31;;;27.59;57.91
53300;BME280;39187;48.476;8.310;2023-08-24T11:06:33;91374.91;;;27.49;57.15
53300;BME280;39187;48.476;8.310;2023-08-24T11:09:08;91366.31;;;27.40;56.17
53300;BME280;39187;48.476;8.310;2023-08-24T11:11:40;91369.47;;;27.25;56.48
53300;BME280;39187;48.476;8.310;2023-08-24T11:14:17;91371.25;;;26.98;58.23
53300;BME280;39187;48.476;8.310;2023-08-24T11:16:45;91367.31;;;27.18;57.62
53300;BME280;39187;48.476;8.310;2023-08-24T11:19:12;91362.78;;;27.45;56.24
53300;BME280;39187;48.476;8.310;2023-08-24T11:21:39;91363.38;;;27.38;56.17
53300;BME280;39187;48.476;8.310;2023-08-24T11:24:05;91364.28;;;27.65;56.52
53300;BME280;39187;48.476;8.310;2023-08-24T11:26:31;91364.72;;;27.69;57.48
53300;BME280;39187;48.476;8.310;2023-08-24T11:28:57;91367.38;;;27.74;57.71
53300;BME280;39187;48.476;8.310;2023-08-24T11:31:23;91371.66;;;27.51;58.77
53300;BME280;39187;48.476;8.310;2023-08-24T11:33:54;91365.03;;;27.22;57.10
53300;BME280;39187;48.476;8.310;2023-08-24T11:36:23;91362.03;;;27.26;57.47
53300;BME280;39187;48.476;8.310;2023-08-24T11:38:51;91361.22;;;27.31;59.05
53300;BME280;39187;48.476;8.310;2023-08-24T11:41:18;91355.38;;;27.40;58.76
53300;BME280;39187;48.476;8.310;2023-08-24T11:43:45;91356.06;;;27.46;59.30
53300;BME280;39187;48.476;8.310;2023-08-24T11:46:12;91357.72;;;27.30;57.08
53300;BME280;39187;48.476;8.310;2023-08-24T11:48:38;91358.97;;;27.29;57.85
53300;BME280;39187;48.476;8.310;2023-08-24T11:51:08;91346.56;;;27.28;57.42
53300;BME280;39187;48.476;8.310;2023-08-24T11:53:41;91344.78;;;27.12;57.60
53300;BME280;39187;48.476;8.310;2023-08-24T11:56:13;91349.75;;;27.13;58.16
53300;BME280;39187;48.476;8.310;2023-08-24T11:58:43;91352.19;;;27.17;58.30
53300;BME280;39187;48.476;8.310;2023-08-24T12:01:12;91353.81;;;27.26;59.63
53300;BME280;39187;48.476;8.310;2023-08-24T12:03:38;91350.34;;;27.44;58.72
53300;BME280;39187;48.476;8.310;2023-08-24T12:06:11;91342.81;;;27.50;58.65
53300;BME280;39187;48.476;8.310;2023-08-24T12:08:39;91337.25;;;27.18;57.29
53300;BME280;39187;48.476;8.310;2023-08-24T12:11:19;91344.66;;;27.23;56.60
53300;BME280;39187;48.476;8.310;2023-08-24T12:13:50;91334.84;;;27.33;56.70
53300;BME280;39187;48.476;8.310;2023-08-24T12:16:17;91335.63;;;27.71;57.84
53300;BME280;39187;48.476;8.310;2023-08-24T12:18:56;91336.06;;;27.57;56.86
53300;BME280;39187;48.476;8.310;2023-08-24T12:21:23;91322.22;;;27.68;56.35
53300;BME280;39187;48.476;8.310;2023-08-24T12:24:02;91332.72;;;27.64;56.53
53300;BME280;39187;48.476;8.310;2023-08-24T12:26:34;91330.63;;;27.32;57.03
53300;BME280;39187;48.476;8.310;2023-08-24T12:29:05;91325.28;;;27.40;58.60
53300;BME280;39187;48.476;8.310;2023-08-24T12:31:31;91321.09;;;27.20;60.37
53300;BME280;39187;48.476;8.310;2023-08-24T12:34:04;91314.56;;;27.04;60.94
53300;BME280;39187;48.476;8.310;2023-08-24T12:36:32;91304.97;;;26.98;63.06
53300;BME280;39187;48.476;8.310;2023-08-24T12:38:58;91300.09;;;26.85;64.38
53300;BME280;39187;48.476;8.310;2023-08-24T12:41:24;91294.19;;;27.05;64.46
53300;BME280;39187;48.476;8.310;2023-08-24T12:43:50;91291.03;;;27.20;64.81
53300;BME280;39187;48.476;8.310;2023-08-24T12:46:17;91295.59;;;27.12;64.93
53300;BME280;39187;48.476;8.310;2023-08-24T12:48:42;91291.69;;;27.07;65.99
53300;BME280;39187;48.476;8.310;2023-08-24T12:51:08;91292.94;;;27.06;66.79
53300;BME280;39187;48.476;8.310;2023-08-24T12:53:33;91282.75;;;27.07;67.20
53300;BME280;39187;48.476;8.310;2023-08-24T12:55:59;91286.16;;;27.32;64.70
53300;BME280;39187;48.476;8.310;2023-08-24T12:58:24;91275.88;;;27.38;62.60
53300;BME280;39187;48.476;8.310;2023-08-24T13:00:50;91273.91;;;27.38;63.50
53300;BME280;39187;48.476;8.310;2023-08-24T13:03:16;91268.78;;;27.48;65.29
53300;BME280;39187;48.476;8.310;2023-08-24T13:05:42;91275.16;;;27.37;66.58
53300;BME280;39187;48.476;8.310;2023-08-24T13:08:07;91271.53;;;27.29;66.42